Time;durP1;ratioP1;P1;durP2;ratioP2;P2;SDS_P1;SDS_P2;PMS_P1;PMS_P2;Temp;Humidity;BMP_temperature;BMP_pressure;BME280_temperature;BME280_humidity;BME280_pressure;Samples;Min_cycle;Max_cycle;Signal;HPM_P1;HPM_P2
2021/07/20 00:02:02;;;;;;;19.87;10.18;;;18.30;99.90;;;;;;2033973;70;21071;-74
2021/07/20 00:04:28;;;;;;;12.45;9.80;;;18.30;99.90;;;;;;2033985;70;21173;-74
2021/07/20 00:06:54;;;;;;;15.32;9.98;;;18.30;99.90;;;;;;2034025;70;21064;-74
2021/07/20 00:09:21;;;;;;;15.83;10.68;;;18.30;99.90;;;;;;2034203;70;21067;-74
2021/07/20 00:11:47;;;;;;;15.75;10.63;;;18.20;99.90;;;;;;2034811;70;21118;-74
2021/07/20 00:14:13;;;;;;;17.75;10.90;;;18.20;99.90;;;;;;2037649;70;21071;-74
2021/07/20 00:16:39;;;;;;;13.95;10.23;;;18.10;99.90;;;;;;2029783;70;21161;-74
2021/07/20 00:19:05;;;;;;;16.05;10.70;;;18.00;99.90;;;;;;2033064;70;21083;-74
2021/07/20 00:21:31;;;;;;;16.32;11.00;;;18.00;99.90;;;;;;2033853;69;21070;-75
2021/07/20 00:23:57;;;;;;;14.25;9.68;;;18.00;99.90;;;;;;2033770;70;21164;-74
2021/07/20 00:26:23;;;;;;;13.30;10.20;;;17.90;99.90;;;;;;2033864;70;21078;-74
2021/07/20 00:28:50;;;;;;;17.20;10.95;;;17.80;99.90;;;;;;2034072;70;21083;-74
2021/07/20 00:31:16;;;;;;;19.90;11.48;;;17.80;99.90;;;;;;2033668;69;21055;-75
2021/07/20 00:33:42;;;;;;;16.93;10.75;;;17.70;99.90;;;;;;2032692;70;21050;-74
2021/07/20 00:36:08;;;;;;;14.60;10.35;;;17.70;99.90;;;;;;2035220;70;21103;-74
2021/07/20 00:38:34;;;;;;;16.32;10.68;;;17.60;99.90;;;;;;2033950;69;21068;-74
2021/07/20 00:41:00;;;;;;;15.25;9.48;;;17.60;99.90;;;;;;2036774;70;21076;-74
2021/07/20 00:43:26;;;;;;;12.30;9.80;;;17.60;99.90;;;;;;2034469;69;21075;-75
2021/07/20 00:45:53;;;;;;;17.50;11.10;;;17.50;99.90;;;;;;2034652;70;21051;-74
2021/07/20 00:48:19;;;;;;;15.43;10.88;;;17.50;99.90;;;;;;2034035;70;21126;-74
2021/07/20 00:50:45;;;;;;;17.70;11.03;;;17.40;99.90;;;;;;2033853;70;21063;-74
2021/07/20 00:53:11;;;;;;;15.95;10.45;;;17.30;99.90;;;;;;2034000;70;21055;-74
2021/07/20 00:55:37;;;;;;;15.98;11.00;;;17.30;99.90;;;;;;2033940;70;21075;-75
2021/07/20 00:58:03;;;;;;;16.05;10.28;;;17.20;99.90;;;;;;2034045;70;21145;-74
2021/07/20 01:00:29;;;;;;;22.02;11.20;;;17.20;99.90;;;;;;2033803;70;21064;-74
2021/07/20 01:02:55;;;;;;;13.62;10.30;;;17.20;99.90;;;;;;2034014;70;21071;-74
2021/07/20 01:05:22;;;;;;;16.70;10.90;;;17.10;99.90;;;;;;2033891;70;21039;-74
2021/07/20 01:07:48;;;;;;;17.17;10.20;;;17.10;99.90;;;;;;2034113;70;21038;-75
2021/07/20 01:10:14;;;;;;;14.78;11.57;;;17.00;99.90;;;;;;2033907;69;21150;-75
2021/07/20 01:12:40;;;;;;;13.98;9.90;;;17.00;99.90;;;;;;2033917;70;21152;-75
2021/07/20 01:15:06;;;;;;;18.48;10.88;;;17.00;99.90;;;;;;2033870;70;21148;-74
2021/07/20 01:17:32;;;;;;;18.82;10.80;;;16.90;99.90;;;;;;2033933;70;21130;-75
2021/07/20 01:19:58;;;;;;;17.37;10.70;;;16.90;99.90;;;;;;2033920;70;21152;-75
2021/07/20 01:22:24;;;;;;;14.25;9.95;;;16.90;99.90;;;;;;2033863;70;21043;-74
2021/07/20 01:24:51;;;;;;;14.70;10.68;;;16.90;99.90;;;;;;2033889;69;21083;-74
2021/07/20 01:27:17;;;;;;;14.63;9.45;;;16.90;99.90;;;;;;2033913;70;21075;-74
2021/07/20 01:29:43;;;;;;;18.30;9.88;;;16.90;99.90;;;;;;2033996;70;21067;-75
2021/07/20 01:32:09;;;;;;;15.00;10.20;;;16.90;99.90;;;;;;2033902;70;21103;-75
2021/07/20 01:34:35;;;;;;;22.48;10.25;;;17.00;99.90;;;;;;2033850;70;21075;-75
2021/07/20 01:37:01;;;;;;;17.05;9.23;;;16.90;99.90;;;;;;2033981;69;21105;-75
2021/07/20 01:39:27;;;;;;;15.53;10.00;;;16.90;99.90;;;;;;2033769;70;21507;-74
2021/07/20 01:41:54;;;;;;;16.07;10.60;;;16.80;99.90;;;;;;2033881;70;21467;-74
2021/07/20 01:44:20;;;;;;;14.30;10.53;;;16.80;99.90;;;;;;2034017;70;21160;-74
2021/07/20 01:46:46;;;;;;;17.62;9.65;;;16.80;99.90;;;;;;2033911;70;21579;-74
2021/07/20 01:49:12;;;;;;;13.55;9.60;;;16.70;99.90;;;;;;2034018;70;21536;-74
2021/07/20 01:51:38;;;;;;;19.87;10.63;;;16.60;99.90;;;;;;2033884;69;21473;-75
2021/07/20 01:54:04;;;;;;;15.03;9.38;;;16.60;99.90;;;;;;2033877;70;21563;-75
2021/07/20 01:56:31;;;;;;;18.05;9.45;;;16.60;99.90;;;;;;2033899;70;21580;-75
2021/07/20 01:58:57;;;;;;;15.72;9.23;;;16.50;99.90;;;;;;2034008;70;21487;-73
2021/07/20 02:01:23;;;;;;;13.55;9.53;;;16.50;99.90;;;;;;2033872;70;21506;-73
2021/07/20 02:09:04;;;;;;;14.43;9.18;;;16.40;99.90;;;;;;2033851;70;21044;-74
2021/07/20 02:11:33;;;;;;;17.37;10.20;;;16.40;99.90;;;;;;2033905;70;21071;-75
2021/07/20 02:14:00;;;;;;;18.30;10.50;;;16.40;99.90;;;;;;2033690;70;21438;-75
2021/07/20 02:16:26;;;;;;;13.55;10.00;;;16.30;99.90;;;;;;2033767;70;21145;-75
2021/07/20 02:18:52;;;;;;;17.75;9.95;;;16.30;99.90;;;;;;2033848;69;21141;-74
2021/07/20 02:21:18;;;;;;;14.40;9.13;;;16.20;99.90;;;;;;2033740;70;21071;-74
2021/07/20 02:23:44;;;;;;;17.90;10.35;;;16.10;99.90;;;;;;2033785;70;21091;-75
2021/07/20 02:26:10;;;;;;;18.07;10.23;;;16.10;99.90;;;;;;2033733;70;21152;-74
2021/07/20 02:28:36;;;;;;;16.45;9.83;;;16.00;99.90;;;;;;2033802;70;21059;-74
2021/07/20 02:31:03;;;;;;;14.78;9.58;;;16.00;99.90;;;;;;2033643;70;21043;-75
2021/07/20 02:33:29;;;;;;;13.78;9.08;;;16.00;99.90;;;;;;2033798;70;21119;-75
2021/07/20 02:35:55;;;;;;;15.55;10.35;;;15.90;99.90;;;;;;2033887;70;21034;-75
2021/07/20 02:38:21;;;;;;;18.32;10.38;;;16.00;99.90;;;;;;2033646;70;21067;-75
2021/07/20 02:40:48;;;;;;;13.53;9.48;;;15.90;99.90;;;;;;2033665;70;21126;-74
2021/07/20 02:43:14;;;;;;;15.55;9.30;;;15.90;99.90;;;;;;2033855;70;21164;-74
2021/07/20 02:45:40;;;;;;;13.95;9.05;;;15.80;99.90;;;;;;2033765;69;21027;-75
2021/07/20 02:48:06;;;;;;;14.53;9.93;;;15.80;99.90;;;;;;2033803;70;21068;-74
2021/07/20 02:50:32;;;;;;;11.73;9.53;;;15.70;99.90;;;;;;2033864;70;21172;-74
2021/07/20 02:52:58;;;;;;;15.70;10.25;;;15.70;99.90;;;;;;2033989;70;21046;-74
2021/07/20 02:55:24;;;;;;;12.75;9.68;;;15.60;99.90;;;;;;2034043;69;21152;-74
2021/07/20 02:57:50;;;;;;;19.07;10.08;;;15.60;99.90;;;;;;2034071;70;21067;-74
2021/07/20 03:00:17;;;;;;;14.07;9.60;;;15.60;99.90;;;;;;2034203;70;21043;-75
2021/07/20 03:02:44;;;;;;;13.65;9.63;;;15.50;99.90;;;;;;2034101;70;21059;-74
2021/07/20 03:05:10;;;;;;;16.25;9.75;;;15.50;99.90;;;;;;2034140;70;21086;-74
2021/07/20 03:07:36;;;;;;;13.72;9.73;;;15.50;99.90;;;;;;2034159;69;21071;-74
2021/07/20 03:10:02;;;;;;;13.60;9.40;;;15.50;99.90;;;;;;2034123;70;21030;-74
2021/07/20 03:12:28;;;;;;;12.63;9.48;;;15.40;99.90;;;;;;2033961;70;21137;-74
2021/07/20 03:14:54;;;;;;;15.83;9.28;;;15.40;99.90;;;;;;2033892;70;21124;-74
2021/07/20 03:17:21;;;;;;;15.23;9.33;;;15.40;99.90;;;;;;2033916;70;21129;-74
2021/07/20 03:19:47;;;;;;;14.00;9.73;;;15.40;99.90;;;;;;2033941;70;21059;-74
2021/07/20 03:22:13;;;;;;;12.10;9.75;;;15.40;99.90;;;;;;2033976;70;21034;-74
2021/07/20 03:24:39;;;;;;;13.00;9.18;;;15.30;99.90;;;;;;2033895;70;21121;-73
2021/07/20 03:27:05;;;;;;;11.30;8.93;;;15.40;99.90;;;;;;2033965;70;21003;-74
2021/07/20 03:29:31;;;;;;;14.15;9.28;;;15.40;99.90;;;;;;2033900;70;21145;-75
2021/07/20 03:31:57;;;;;;;13.50;9.45;;;15.40;99.90;;;;;;2033959;70;21148;-73
2021/07/20 03:34:23;;;;;;;12.70;8.93;;;15.30;99.90;;;;;;2033753;70;21028;-75
2021/07/20 03:36:50;;;;;;;19.62;8.90;;;15.30;99.90;;;;;;2033856;70;21130;-75
2021/07/20 03:39:16;;;;;;;17.80;8.98;;;15.30;99.90;;;;;;2033871;70;21034;-75
2021/07/20 03:41:42;;;;;;;14.10;8.63;;;15.20;99.90;;;;;;2033921;69;21034;-74
2021/07/20 03:44:10;;;;;;;13.30;9.08;;;15.20;99.90;;;;;;2033799;70;21508;-74
2021/07/20 03:46:36;;;;;;;13.32;9.40;;;15.20;99.90;;;;;;2033773;70;21072;-75
2021/07/20 03:49:03;;;;;;;16.27;9.35;;;15.20;99.90;;;;;;2033871;70;21056;-75
2021/07/20 03:51:29;;;;;;;12.95;9.05;;;15.20;99.90;;;;;;2033814;70;21157;-74
2021/07/20 03:53:55;;;;;;;17.20;9.40;;;15.20;99.90;;;;;;2033796;70;21043;-75
2021/07/20 03:56:21;;;;;;;11.53;8.55;;;15.20;99.90;;;;;;2033945;70;21094;-74
2021/07/20 03:58:47;;;;;;;12.07;8.95;;;15.10;99.90;;;;;;2033742;70;21145;-75
2021/07/20 04:01:13;;;;;;;15.32;10.10;;;15.20;99.90;;;;;;2034107;70;21193;-76
2021/07/20 04:03:40;;;;;;;17.07;9.43;;;15.20;99.90;;;;;;2033748;70;21059;-75
2021/07/20 04:06:06;;;;;;;16.82;9.05;;;15.20;99.90;;;;;;2033891;70;21117;-75
2021/07/20 04:08:33;;;;;;;17.12;9.60;;;15.20;99.90;;;;;;2033792;70;21040;-74
2021/07/20 04:11:00;;;;;;;16.50;8.35;;;15.20;99.90;;;;;;2034519;70;21110;-74
2021/07/20 04:13:26;;;;;;;15.48;9.70;;;15.20;99.90;;;;;;2034624;70;21047;-75
2021/07/20 04:15:52;;;;;;;22.30;9.33;;;15.20;99.90;;;;;;2033935;70;21141;-74
2021/07/20 04:18:18;;;;;;;15.13;9.33;;;15.20;99.90;;;;;;2033864;69;21055;-75
2021/07/20 04:20:44;;;;;;;13.75;9.25;;;15.20;99.90;;;;;;2033870;70;21059;-75
2021/07/20 04:23:10;;;;;;;17.67;8.88;;;15.20;99.90;;;;;;2033835;69;21068;-75
2021/07/20 04:25:37;;;;;;;18.07;10.00;;;15.20;99.90;;;;;;2033827;70;21090;-74
2021/07/20 04:28:03;;;;;;;14.98;9.20;;;15.20;99.90;;;;;;2033821;70;21051;-75
2021/07/20 04:30:29;;;;;;;18.62;8.20;;;15.30;99.90;;;;;;2033876;70;21060;-76
2021/07/20 04:32:55;;;;;;;12.78;8.68;;;15.30;99.90;;;;;;2033896;69;21064;-76
2021/07/20 04:35:21;;;;;;;14.75;8.53;;;15.30;99.90;;;;;;2033809;70;21068;-75
2021/07/20 04:37:47;;;;;;;18.02;9.10;;;15.30;99.90;;;;;;2033888;70;21059;-74
2021/07/20 04:40:13;;;;;;;16.60;8.68;;;15.40;99.90;;;;;;2034309;69;21038;-74
2021/07/20 04:42:39;;;;;;;16.77;9.03;;;15.40;99.90;;;;;;2037531;70;21081;-74
2021/07/20 04:45:05;;;;;;;12.43;8.53;;;15.40;99.90;;;;;;2033222;69;21172;-77
2021/07/20 04:47:32;;;;;;;15.32;9.50;;;15.40;99.90;;;;;;2033856;70;21056;-76
2021/07/20 04:49:58;;;;;;;12.45;8.25;;;15.40;99.90;;;;;;2034129;70;21115;-74
2021/07/20 04:52:24;;;;;;;12.55;8.48;;;15.50;99.90;;;;;;2033783;70;21071;-78
2021/07/20 04:54:50;;;;;;;15.18;9.10;;;15.50;99.90;;;;;;2034008;70;21114;-76
2021/07/20 04:57:16;;;;;;;10.70;8.20;;;15.50;99.90;;;;;;2033852;69;21055;-76
2021/07/20 04:59:42;;;;;;;14.60;9.05;;;15.60;99.90;;;;;;2033922;70;21149;-75
2021/07/20 05:02:08;;;;;;;19.70;8.53;;;15.60;99.90;;;;;;2033815;70;21165;-75
2021/07/20 05:04:35;;;;;;;16.62;8.10;;;15.70;99.90;;;;;;2033880;70;21124;-75
2021/07/20 05:07:01;;;;;;;17.23;8.53;;;15.70;99.90;;;;;;2033918;70;21161;-76
2021/07/20 05:09:27;;;;;;;22.27;9.13;;;15.80;99.90;;;;;;2032799;70;21055;-75
2021/07/20 05:11:53;;;;;;;12.13;8.00;;;15.80;99.90;;;;;;2026902;70;21435;-76
2021/07/20 05:14:19;;;;;;;8.98;8.08;;;15.90;99.90;;;;;;2033616;70;21492;-76
2021/07/20 05:16:45;;;;;;;11.90;8.13;;;15.90;99.90;;;;;;2033827;69;21487;-76
2021/07/20 05:19:11;;;;;;;12.35;7.83;;;16.00;99.90;;;;;;2027715;70;21500;-75
2021/07/20 05:21:37;;;;;;;15.08;8.80;;;16.00;99.90;;;;;;2031949;70;21491;-76
2021/07/20 05:24:04;;;;;;;14.98;8.88;;;16.10;99.90;;;;;;2033822;70;21518;-76
2021/07/20 05:26:30;;;;;;;18.62;8.35;;;16.10;99.90;;;;;;2029559;70;21192;-75
2021/07/20 05:28:56;;;;;;;13.53;8.43;;;16.20;99.90;;;;;;2033832;70;21055;-78
2021/07/20 05:31:23;;;;;;;14.10;8.30;;;16.40;99.90;;;;;;2033780;70;21063;-74
2021/07/20 05:33:49;;;;;;;13.28;8.25;;;16.60;99.90;;;;;;2033753;70;21056;-77
2021/07/20 05:36:15;;;;;;;16.77;7.97;;;16.70;99.90;;;;;;2033699;70;21471;-77
2021/07/20 05:38:41;;;;;;;12.45;7.58;;;16.90;99.90;;;;;;2033756;70;21495;-74
2021/07/20 05:41:07;;;;;;;13.95;8.00;;;17.10;99.90;;;;;;2033807;69;21448;-78
2021/07/20 05:43:34;;;;;;;14.55;8.00;;;17.20;99.90;;;;;;2033769;70;21572;-76
2021/07/20 05:46:00;;;;;;;14.47;8.18;;;17.20;99.90;;;;;;2033796;70;21555;-76
2021/07/20 05:48:26;;;;;;;13.10;8.00;;;17.20;99.90;;;;;;2033902;70;21026;-77
2021/07/20 05:50:53;;;;;;;12.90;7.70;;;17.50;99.90;;;;;;2033682;70;21143;-76
2021/07/20 05:53:19;;;;;;;13.90;7.90;;;17.80;99.90;;;;;;2033632;70;21161;-76
2021/07/20 05:55:45;;;;;;;11.40;7.10;;;18.40;99.90;;;;;;2033649;70;21222;-76
2021/07/20 05:58:11;;;;;;;18.60;7.40;;;19.20;99.90;;;;;;2033652;69;21067;-77
2021/07/20 06:00:37;;;;;;;11.78;7.30;;;19.80;99.90;;;;;;2033679;69;21140;-76
2021/07/20 06:03:04;;;;;;;10.32;6.92;;;20.20;99.90;;;;;;2033699;70;21157;-76
2021/07/20 06:05:30;;;;;;;12.30;7.05;;;20.70;99.90;;;;;;2033706;70;21092;-77
2021/07/20 06:07:56;;;;;;;9.08;6.65;;;20.80;99.90;;;;;;2033608;70;21095;-80
2021/07/20 06:10:22;;;;;;;10.45;6.58;;;21.10;99.90;;;;;;2033806;69;21063;-80
2021/07/20 06:12:48;;;;;;;12.50;6.20;;;21.30;99.90;;;;;;2033834;70;21071;-80
2021/07/20 06:15:14;;;;;;;13.55;6.20;;;21.60;99.90;;;;;;2033792;70;21137;-80
2021/07/20 06:17:40;;;;;;;14.58;6.80;;;21.70;99.90;;;;;;2034102;70;21078;-80
2021/07/20 06:20:06;;;;;;;11.43;6.20;;;21.70;99.90;;;;;;2034576;70;21051;-81
2021/07/20 06:22:34;;;;;;;9.40;6.33;;;22.40;99.90;;;;;;2009590;70;21030;-82
2021/07/20 06:25:00;;;;;;;11.38;6.67;;;22.90;99.90;;;;;;2034473;70;21205;-81
2021/07/20 06:27:26;;;;;;;11.08;6.28;;;23.50;99.90;;;;;;2034249;70;21152;-81
2021/07/20 06:29:52;;;;;;;7.80;5.97;;;23.20;99.90;;;;;;2034191;70;21086;-80
2021/07/20 06:32:18;;;;;;;9.73;5.70;;;23.20;99.90;;;;;;2034090;70;21478;-81
2021/07/20 06:34:45;;;;;;;8.60;5.53;;;23.40;99.90;;;;;;2034470;70;21036;-80
2021/07/20 06:37:13;;;;;;;12.88;6.40;;;23.40;99.90;;;;;;2034352;70;21160;-80
2021/07/20 06:39:38;;;;;;;10.82;5.70;;;23.40;99.90;;;;;;2034224;70;21429;-81
2021/07/20 06:42:05;;;;;;;10.32;5.75;;;23.70;99.90;;;;;;2034238;70;21023;-80
2021/07/20 06:44:31;;;;;;;13.28;6.15;;;23.10;99.90;;;;;;2034310;69;21630;-80
2021/07/20 06:46:59;;;;;;;9.55;5.85;;;22.00;99.90;;;;;;2034285;69;21482;-80
2021/07/20 06:49:25;;;;;;;12.13;5.15;;;22.40;99.90;;;;;;2033935;70;21133;-80
2021/07/20 06:51:51;;;;;;;9.73;6.28;;;22.90;99.90;;;;;;2034181;70;21114;-80
2021/07/20 06:54:17;;;;;;;11.73;5.78;;;22.90;99.90;;;;;;2034002;70;21129;-80
2021/07/20 06:56:43;;;;;;;11.40;6.00;;;23.50;99.90;;;;;;2033921;70;21443;-82
2021/07/20 06:59:09;;;;;;;10.70;5.75;;;24.30;99.90;;;;;;2033901;69;21467;-79
2021/07/20 07:01:35;;;;;;;9.35;4.62;;;23.40;99.90;;;;;;2033937;70;21486;-80
2021/07/20 07:04:01;;;;;;;15.98;5.85;;;22.40;99.90;;;;;;2034303;70;21450;-81
2021/07/20 07:06:28;;;;;;;12.90;6.15;;;22.40;99.90;;;;;;2034364;69;21047;-79
2021/07/20 07:08:55;;;;;;;13.25;5.35;;;22.70;99.90;;;;;;2034083;70;21136;-80
2021/07/20 07:11:21;;;;;;;9.13;5.15;;;22.60;99.90;;;;;;2034191;70;21478;-79
2021/07/20 07:13:47;;;;;;;11.15;6.25;;;23.40;99.90;;;;;;2033802;69;21548;-79
2021/07/20 07:16:13;;;;;;;9.73;5.62;;;23.60;99.90;;;;;;2033643;70;21541;-79
2021/07/20 07:18:39;;;;;;;8.40;5.33;;;24.20;99.90;;;;;;2034264;70;21467;-80
2021/07/20 07:21:05;;;;;;;10.93;5.65;;;23.40;99.90;;;;;;2035083;70;21479;-79
2021/07/20 07:23:31;;;;;;;10.65;5.37;;;23.90;99.90;;;;;;2033402;70;21047;-79
2021/07/20 07:25:58;;;;;;;7.83;5.53;;;24.10;99.90;;;;;;2033626;70;21023;-79
2021/07/20 07:28:24;;;;;;;9.43;5.75;;;24.50;99.90;;;;;;2033640;69;21082;-80
2021/07/20 07:30:50;;;;;;;9.88;6.22;;;24.90;99.90;;;;;;2033636;70;21538;-75
2021/07/20 07:33:16;;;;;;;12.05;6.28;;;24.60;99.90;;;;;;2033675;69;21105;-78
2021/07/20 07:35:43;;;;;;;12.03;5.87;;;24.20;99.90;;;;;;2033709;70;21063;-78
2021/07/20 07:38:09;;;;;;;17.87;5.83;;;23.80;99.90;;;;;;2031730;69;21060;-79
2021/07/20 07:40:35;;;;;;;15.38;6.50;;;23.90;99.90;;;;;;2032079;70;21050;-77
2021/07/20 07:43:01;;;;;;;12.58;6.28;;;22.80;99.90;;;;;;2033717;70;21107;-78
2021/07/20 07:45:27;;;;;;;12.00;6.28;;;22.50;99.90;;;;;;2030785;70;21198;-78
2021/07/20 07:47:53;;;;;;;11.22;6.05;;;22.90;99.90;;;;;;2033808;70;21055;-80
2021/07/20 07:50:19;;;;;;;16.42;6.03;;;22.90;99.90;;;;;;2033870;70;21104;-79
2021/07/20 07:52:46;;;;;;;7.60;6.03;;;22.00;99.90;;;;;;2033829;69;21059;-81
2021/07/20 07:55:12;;;;;;;10.82;6.17;;;21.70;99.90;;;;;;2033703;69;21068;-78
2021/07/20 07:57:38;;;;;;;12.90;5.95;;;22.30;99.90;;;;;;2033785;70;21079;-78
2021/07/20 08:00:04;;;;;;;11.45;6.22;;;22.40;99.90;;;;;;2033847;70;21137;-78
2021/07/20 08:02:30;;;;;;;11.63;6.25;;;22.60;99.90;;;;;;2033874;70;21140;-79
2021/07/20 08:04:57;;;;;;;17.52;6.10;;;22.10;99.90;;;;;;2033898;70;21127;-79
2021/07/20 08:07:23;;;;;;;11.10;6.35;;;22.40;99.90;;;;;;2033908;70;21145;-78
2021/07/20 08:09:49;;;;;;;8.53;6.20;;;22.60;99.90;;;;;;2033889;69;21071;-79
2021/07/20 08:12:15;;;;;;;9.68;5.97;;;22.20;99.90;;;;;;2033950;69;21073;-80
2021/07/20 08:14:41;;;;;;;9.63;5.67;;;22.80;99.90;;;;;;2033853;70;21103;-78
2021/07/20 08:17:07;;;;;;;16.27;6.15;;;23.30;99.90;;;;;;2033914;70;21068;-78
2021/07/20 08:19:33;;;;;;;11.75;6.28;;;24.20;99.90;;;;;;2033928;69;21087;-78
2021/07/20 08:22:01;;;;;;;8.63;5.47;;;23.80;99.90;;;;;;2033889;70;21067;-79
2021/07/20 08:24:29;;;;;;;11.45;5.50;;;24.00;99.90;;;;;;2033914;69;21071;-77
2021/07/20 08:26:57;;;;;;;8.13;5.25;;;23.90;99.90;;;;;;2033866;69;21071;-77
2021/07/20 08:29:23;;;;;;;7.28;5.20;;;23.20;99.90;;;;;;2033881;70;21072;-75
2021/07/20 08:31:49;;;;;;;15.10;6.55;;;23.10;99.90;;;;;;2034021;70;21063;-76
2021/07/20 08:34:15;;;;;;;9.80;5.42;;;22.80;99.90;;;;;;2034125;70;21034;-76
2021/07/20 08:36:41;;;;;;;10.60;6.00;;;23.20;99.90;;;;;;2034122;70;21063;-76
2021/07/20 08:39:08;;;;;;;9.85;5.30;;;23.20;99.90;;;;;;2033934;69;21059;-76
2021/07/20 08:41:34;;;;;;;13.03;5.90;;;23.30;99.90;;;;;;2033948;70;21059;-76
2021/07/20 08:44:00;;;;;;;9.65;5.37;;;23.50;99.90;;;;;;2034164;70;21442;-78
2021/07/20 08:46:27;;;;;;;8.03;5.28;;;23.50;99.90;;;;;;2033896;69;21490;-77
2021/07/20 08:48:53;;;;;;;11.50;6.08;;;23.20;99.90;;;;;;2033875;69;21077;-76
2021/07/20 08:51:19;;;;;;;11.28;5.37;;;23.30;99.90;;;;;;2034037;69;21141;-77
2021/07/20 08:53:46;;;;;;;10.03;5.45;;;23.20;99.90;;;;;;2033862;69;21129;-77
2021/07/20 08:56:12;;;;;;;10.98;5.28;;;22.80;99.90;;;;;;2033889;70;21083;-76
2021/07/20 08:58:38;;;;;;;10.00;5.20;;;22.80;99.90;;;;;;2034029;69;21064;-76
2021/07/20 09:01:04;;;;;;;10.75;4.92;;;22.90;99.90;;;;;;2033790;70;21146;-76
2021/07/20 09:03:32;;;;;;;10.32;5.75;;;23.20;99.90;;;;;;2033949;69;21195;-77
2021/07/20 09:06:07;;;;;;;8.20;5.25;;;23.50;99.90;;;;;;2034038;70;21042;-77
2021/07/20 09:08:26;;;;;;;10.90;5.17;;;23.50;99.90;;;;;;2030141;70;21156;-77
2021/07/20 09:10:52;;;;;;;8.33;5.15;;;22.80;99.90;;;;;;2034110;70;21052;-77
2021/07/20 09:13:19;;;;;;;14.10;6.00;;;23.20;99.90;;;;;;2033994;70;21063;-77
2021/07/20 09:15:45;;;;;;;9.05;5.65;;;23.60;99.90;;;;;;2037861;70;21051;-77
2021/07/20 09:18:11;;;;;;;10.53;6.03;;;23.60;99.90;;;;;;2037953;70;21071;-77
2021/07/20 09:20:37;;;;;;;12.63;6.10;;;23.70;99.90;;;;;;2034267;69;21071;-77
2021/07/20 09:23:03;;;;;;;14.28;5.72;;;23.30;99.90;;;;;;2034071;69;21113;-77
2021/07/20 09:25:29;;;;;;;15.40;6.00;;;23.80;99.90;;;;;;2034055;69;21164;-78
2021/07/20 09:27:55;;;;;;;9.83;5.60;;;23.80;99.90;;;;;;2034025;70;21055;-77
2021/07/20 09:30:21;;;;;;;11.25;5.75;;;23.80;99.90;;;;;;2033795;69;21039;-76
2021/07/20 09:32:49;;;;;;;20.02;5.22;;;24.10;99.90;;;;;;2034051;70;21047;-76
2021/07/20 09:35:15;;;;;;;12.03;6.65;;;24.40;99.90;;;;;;2033883;70;21043;-78
2021/07/20 09:37:41;;;;;;;21.00;6.53;;;24.20;99.90;;;;;;2031851;70;21127;-76
2021/07/20 09:40:07;;;;;;;17.85;6.15;;;24.30;99.90;;;;;;2032878;70;21071;-76
2021/07/20 09:42:33;;;;;;;13.28;6.53;;;23.60;99.90;;;;;;2033939;70;21219;-76
2021/07/20 09:45:00;;;;;;;9.18;5.78;;;23.50;99.90;;;;;;2033943;70;21067;-76
2021/07/20 09:47:26;;;;;;;12.35;5.90;;;23.60;99.90;;;;;;2034037;70;21071;-75
2021/07/20 09:49:52;;;;;;;11.43;6.95;;;23.60;99.90;;;;;;2034287;70;21063;-76
2021/07/20 09:52:18;;;;;;;13.83;6.87;;;23.90;99.90;;;;;;2021024;70;21117;-75
2021/07/20 09:54:44;;;;;;;11.90;7.00;;;24.10;99.90;;;;;;2030885;70;21091;-77
2021/07/20 09:57:10;;;;;;;12.20;7.03;;;23.60;99.90;;;;;;2029354;70;21074;-78
2021/07/20 09:59:38;;;;;;;14.87;7.37;;;23.80;99.90;;;;;;2029776;70;21063;-76
2021/07/20 10:02:04;;;;;;;12.60;6.78;;;24.10;99.90;;;;;;2034545;69;21075;-80
2021/07/20 10:04:30;;;;;;;12.63;6.90;;;24.50;99.90;;;;;;2008967;70;21039;-78
2021/07/20 10:06:56;;;;;;;10.82;6.60;;;24.50;99.90;;;;;;2034286;70;21075;-78
2021/07/20 10:09:22;;;;;;;14.83;7.47;;;24.20;99.90;;;;;;2033947;69;21136;-77
2021/07/20 10:11:48;;;;;;;13.05;7.65;;;24.10;99.90;;;;;;2033981;70;21152;-76
2021/07/20 10:14:17;;;;;;;12.55;6.30;;;24.50;99.90;;;;;;2033959;70;21168;-80
2021/07/20 10:16:43;;;;;;;12.07;6.00;;;24.70;99.90;;;;;;2033937;70;21071;-79
2021/07/20 10:19:09;;;;;;;15.15;6.83;;;24.90;99.90;;;;;;2034080;70;21503;-79
2021/07/20 10:21:35;;;;;;;10.55;6.72;;;24.90;99.90;;;;;;2033943;70;21518;-80
2021/07/20 10:24:01;;;;;;;11.80;6.90;;;24.80;99.90;;;;;;2033981;70;21545;-79
2021/07/20 10:26:29;;;;;;;13.45;7.05;;;25.00;99.90;;;;;;2033938;70;21478;-78
2021/07/20 10:28:55;;;;;;;12.63;7.05;;;25.10;99.90;;;;;;2034029;70;21141;-78
2021/07/20 10:31:21;;;;;;;11.43;7.22;;;24.70;99.90;;;;;;2034345;70;21203;-78
2021/07/20 10:33:48;;;;;;;10.93;7.00;;;24.80;99.90;;;;;;2033929;70;21020;-78
2021/07/20 10:36:14;;;;;;;13.83;6.95;;;24.40;99.90;;;;;;2034212;69;21145;-78
2021/07/20 10:38:40;;;;;;;15.43;6.92;;;24.60;99.90;;;;;;2033771;69;21314;-78
2021/07/20 10:41:06;;;;;;;12.33;7.00;;;25.30;99.90;;;;;;2033897;69;21097;-78
2021/07/20 10:43:33;;;;;;;13.35;6.87;;;25.40;99.90;;;;;;2034012;70;21080;-77
2021/07/20 10:45:59;;;;;;;13.58;7.70;;;25.10;99.90;;;;;;2033779;70;21043;-78
2021/07/20 10:48:25;;;;;;;10.58;7.42;;;25.30;99.90;;;;;;2034005;70;21079;-77
2021/07/20 10:50:51;;;;;;;17.45;7.62;;;25.00;99.90;;;;;;2033922;70;21082;-77
2021/07/20 10:53:17;;;;;;;15.05;7.35;;;25.10;99.90;;;;;;2033928;70;21078;-77
2021/07/20 10:55:43;;;;;;;10.13;7.30;;;25.40;99.90;;;;;;2033900;70;21043;-77
2021/07/20 10:58:09;;;;;;;10.72;7.83;;;25.40;99.90;;;;;;2033825;70;21112;-79
2021/07/20 11:00:36;;;;;;;10.68;6.87;;;24.90;99.90;;;;;;2033978;70;21075;-76
2021/07/20 11:03:02;;;;;;;10.65;7.22;;;25.60;99.90;;;;;;2033912;69;21491;-78
2021/07/20 11:05:28;;;;;;;13.53;6.90;;;25.80;99.90;;;;;;2033898;70;21506;-77
2021/07/20 11:07:55;;;;;;;12.30;7.17;;;26.00;99.90;;;;;;2033730;70;21481;-78
2021/07/20 11:10:21;;;;;;;13.03;7.65;;;25.90;99.90;;;;;;2033965;70;21196;-74
2021/07/20 11:12:47;;;;;;;13.62;7.80;;;26.10;99.90;;;;;;2033995;70;21493;-77
2021/07/20 11:15:13;;;;;;;12.03;7.72;;;25.50;99.90;;;;;;2034027;69;21499;-77
2021/07/20 11:17:40;;;;;;;15.28;7.47;;;25.90;99.90;;;;;;2033893;70;21499;-77
2021/07/20 11:20:06;;;;;;;11.38;6.60;;;26.10;99.90;;;;;;2033827;70;21519;-78
2021/07/20 11:22:32;;;;;;;14.07;7.15;;;26.10;99.90;;;;;;2030905;70;21095;-77
2021/07/20 11:24:58;;;;;;;10.25;7.03;;;26.10;99.90;;;;;;2034026;70;21075;-77
2021/07/20 11:27:24;;;;;;;15.95;6.97;;;26.00;99.90;;;;;;2034225;70;21071;-76
2021/07/20 11:29:51;;;;;;;10.25;6.58;;;26.10;99.90;;;;;;2034062;70;21352;-76
2021/07/20 11:32:17;;;;;;;10.50;7.65;;;26.20;99.90;;;;;;2034089;70;21177;-76
2021/07/20 11:34:43;;;;;;;16.80;7.87;;;26.50;99.90;;;;;;2034152;70;21076;-77
2021/07/20 11:37:09;;;;;;;10.93;7.08;;;26.80;99.90;;;;;;2032267;70;21088;-77
2021/07/20 11:39:35;;;;;;;11.00;7.67;;;26.80;99.90;;;;;;2033739;70;21180;-76
2021/07/20 11:42:01;;;;;;;13.03;7.08;;;26.50;99.90;;;;;;2032153;70;21127;-76
2021/07/20 11:44:27;;;;;;;10.98;8.15;;;26.40;99.90;;;;;;2034003;70;21087;-75
2021/07/20 11:46:54;;;;;;;12.75;7.53;;;25.80;99.90;;;;;;2036731;69;21047;-76
2021/07/20 11:49:20;;;;;;;17.52;8.20;;;25.60;99.90;;;;;;2033997;70;21075;-75
2021/07/20 11:51:46;;;;;;;12.58;7.90;;;25.80;99.90;;;;;;2033996;70;21068;-76
2021/07/20 11:54:12;;;;;;;13.85;7.37;;;26.30;99.90;;;;;;2034043;70;21075;-75
2021/07/20 11:56:38;;;;;;;12.63;7.42;;;26.80;99.90;;;;;;2034035;70;21145;-75
2021/07/20 11:59:04;;;;;;;19.37;8.10;;;26.40;99.90;;;;;;2034007;70;21067;-75
2021/07/20 12:01:30;;;;;;;16.52;7.33;;;25.80;99.90;;;;;;2033909;70;21072;-76
2021/07/20 12:03:56;;;;;;;10.90;7.30;;;25.90;99.90;;;;;;2034039;70;21075;-75
2021/07/20 12:06:23;;;;;;;12.45;7.90;;;26.30;99.90;;;;;;2033966;70;21178;-75
2021/07/20 12:08:49;;;;;;;10.58;7.53;;;26.60;99.90;;;;;;2033997;70;21052;-75
2021/07/20 12:11:15;;;;;;;21.37;8.00;;;26.80;99.90;;;;;;2034152;70;21141;-75
2021/07/20 12:13:41;;;;;;;11.43;7.20;;;26.30;99.90;;;;;;2033990;70;21087;-75
2021/07/20 12:16:07;;;;;;;14.80;7.00;;;26.50;99.90;;;;;;2034010;70;21079;-75
2021/07/20 12:18:33;;;;;;;10.38;7.37;;;26.80;99.90;;;;;;2034023;70;21067;-75
2021/07/20 12:20:59;;;;;;;16.10;7.75;;;26.40;99.90;;;;;;2033993;70;21067;-75
2021/07/20 12:23:25;;;;;;;12.85;7.30;;;26.30;99.90;;;;;;2034014;69;21075;-75
2021/07/20 12:25:52;;;;;;;15.53;7.80;;;26.10;99.90;;;;;;2033855;70;21207;-75
2021/07/20 12:28:18;;;;;;;12.65;6.75;;;26.40;99.90;;;;;;2033991;69;21068;-75
2021/07/20 12:30:44;;;;;;;9.48;6.97;;;27.10;99.90;;;;;;2033981;70;21071;-75
2021/07/20 12:33:10;;;;;;;9.98;7.15;;;27.10;99.90;;;;;;2033962;69;21145;-75
2021/07/20 12:35:38;;;;;;;18.05;7.15;;;27.20;99.90;;;;;;2033965;70;21160;-75